Time;durP1;ratioP1;P1;durP2;ratioP2;P2;SDS_P1;SDS_P2;PMS_P1;PMS_P2;Temp;Humidity;BMP_temperature;BMP_pressure;BME280_temperature;BME280_humidity;BME280_pressure;Samples;Min_cycle;Max_cycle;Signal;HPM_P1;HPM_P2
2021/01/15 00:00:15;;;;;;;2.70;1.80;;;2.90;76.90;;;;;;5106747;28;20550;-68
2021/01/15 00:02:42;;;;;;;3.15;1.88;;;2.80;77.20;;;;;;5097918;28;20055;-68
2021/01/15 00:05:08;;;;;;;4.80;1.90;;;2.80;77.20;;;;;;5104285;28;20272;-69
2021/01/15 00:07:35;;;;;;;8.13;1.83;;;2.70;78.10;;;;;;5102648;28;20471;-68
2021/01/15 00:10:01;;;;;;;4.03;1.48;;;2.80;77.50;;;;;;5103942;28;20047;-69
2021/01/15 00:12:27;;;;;;;3.55;1.75;;;2.80;77.60;;;;;;5103417;28;20067;-68
2021/01/15 00:14:54;;;;;;;3.63;1.60;;;2.80;77.50;;;;;;5097946;28;20528;-68
2021/01/15 00:17:20;;;;;;;2.97;1.50;;;2.70;77.80;;;;;;5101979;28;20563;-68
2021/01/15 00:19:47;;;;;;;3.97;1.80;;;2.80;77.70;;;;;;5100843;28;20062;-68
2021/01/15 00:22:13;;;;;;;3.83;1.40;;;2.70;77.30;;;;;;5100216;28;20510;-68
2021/01/15 00:24:40;;;;;;;3.03;1.77;;;2.60;77.00;;;;;;5106309;28;20108;-68
2021/01/15 00:27:07;;;;;;;3.78;1.92;;;2.70;77.60;;;;;;5099296;28;20076;-68
2021/01/15 00:29:33;;;;;;;4.40;1.70;;;2.70;77.70;;;;;;5104596;28;20070;-68
2021/01/15 00:31:59;;;;;;;3.30;1.63;;;2.80;77.80;;;;;;5100538;28;20483;-68
2021/01/15 00:34:26;;;;;;;2.42;1.58;;;2.70;77.90;;;;;;5100793;28;20047;-69
2021/01/15 00:36:52;;;;;;;2.70;1.75;;;2.70;78.10;;;;;;5106132;28;20122;-68
2021/01/15 00:39:19;;;;;;;3.13;1.90;;;2.60;77.50;;;;;;5101450;28;20138;-68
2021/01/15 00:41:46;;;;;;;2.03;1.60;;;2.60;77.40;;;;;;5095058;28;20540;-69
2021/01/15 00:44:12;;;;;;;3.35;1.88;;;2.70;77.20;;;;;;5100869;28;20086;-68
2021/01/15 00:46:46;;;;;;;2.22;1.73;;;2.70;77.00;;;;;;5099474;28;20396;-68
2021/01/15 00:49:15;;;;;;;3.53;1.75;;;2.60;77.10;;;;;;5106211;28;20043;-68
2021/01/15 00:51:49;;;;;;;4.82;2.33;;;2.70;77.30;;;;;;5100161;28;20125;-68
2021/01/15 00:54:16;;;;;;;4.57;2.10;;;2.60;77.40;;;;;;5103360;28;20475;-71
2021/01/15 00:56:43;;;;;;;3.95;2.30;;;2.50;77.40;;;;;;5105555;28;20440;-70
2021/01/15 00:59:09;;;;;;;3.65;2.08;;;2.50;78.00;;;;;;5097303;28;20112;-70
2021/01/15 01:01:37;;;;;;;5.65;2.00;;;2.50;77.50;;;;;;5104201;28;20090;-70
2021/01/15 01:04:07;;;;;;;6.40;2.05;;;2.40;77.90;;;;;;5103518;28;20044;-69
2021/01/15 01:06:33;;;;;;;5.72;2.22;;;2.50;78.10;;;;;;5099064;28;20101;-72
2021/01/15 01:09:02;;;;;;;4.05;2.13;;;2.30;78.60;;;;;;5106921;28;20089;-71
2021/01/15 01:11:30;;;;;;;4.03;2.00;;;2.40;79.00;;;;;;5106807;27;20048;-70
2021/01/15 01:13:57;;;;;;;3.15;2.35;;;2.20;79.00;;;;;;5106952;28;20092;-71
2021/01/15 01:16:25;;;;;;;6.35;2.38;;;2.30;79.70;;;;;;5103114;28;20476;-70
2021/01/15 01:18:52;;;;;;;3.28;2.13;;;2.30;79.50;;;;;;5107349;28;21386;-71
2021/01/15 01:21:19;;;;;;;4.78;2.20;;;2.30;79.60;;;;;;5103637;28;20047;-70
2021/01/15 01:23:46;;;;;;;4.57;2.17;;;2.10;80.20;;;;;;5100096;28;20055;-70
2021/01/15 01:26:14;;;;;;;3.63;1.92;;;2.00;80.10;;;;;;5107557;28;20512;-70
2021/01/15 01:28:42;;;;;;;7.15;1.80;;;2.00;80.50;;;;;;5105842;28;20051;-69
2021/01/15 01:31:10;;;;;;;5.70;1.92;;;2.10;80.00;;;;;;5100076;28;20044;-68
2021/01/15 01:33:36;;;;;;;3.53;2.20;;;2.00;80.40;;;;;;5101713;28;20075;-68
2021/01/15 01:36:05;;;;;;;3.25;1.77;;;1.80;80.70;;;;;;5105586;28;20509;-68
2021/01/15 01:38:49;;;;;;;2.58;1.77;;;2.20;80.80;;;;;;5104903;28;20040;-68
2021/01/15 01:41:16;;;;;;;3.30;1.85;;;1.90;80.40;;;;;;5105210;28;20774;-69
2021/01/15 01:43:42;;;;;;;4.03;1.80;;;1.90;80.40;;;;;;5104319;28;20073;-69
2021/01/15 01:46:09;;;;;;;6.50;2.10;;;2.10;80.40;;;;;;5108572;28;20079;-69
2021/01/15 01:48:37;;;;;;;5.13;1.98;;;2.10;80.40;;;;;;5105681;28;20138;-70
2021/01/15 01:51:05;;;;;;;3.15;2.30;;;2.10;79.80;;;;;;5103443;28;20052;-69
2021/01/15 01:53:32;;;;;;;4.25;1.88;;;2.10;80.00;;;;;;5103609;28;20136;-69
2021/01/15 01:56:04;;;;;;;3.10;1.98;;;1.90;79.80;;;;;;5102425;28;20100;-69
2021/01/15 01:58:31;;;;;;;5.20;2.15;;;2.30;80.20;;;;;;5103324;28;20039;-69
2021/01/15 02:01:01;;;;;;;4.53;2.05;;;2.10;80.60;;;;;;5109766;28;20104;-69
2021/01/15 02:03:28;;;;;;;3.55;2.08;;;1.90;79.70;;;;;;5109155;28;20054;-69
2021/01/15 02:05:55;;;;;;;7.57;2.20;;;1.90;80.20;;;;;;5110696;28;20043;-69
2021/01/15 02:08:21;;;;;;;5.18;2.33;;;1.90;80.00;;;;;;5111016;28;20052;-70
2021/01/15 02:11:10;;;;;;;6.90;2.30;;;2.10;80.20;;;;;;5109218;28;20035;-70
2021/01/15 02:14:00;;;;;;;7.45;2.17;;;1.80;79.90;;;;;;5109973;28;20122;-70
2021/01/15 02:16:29;;;;;;;3.45;2.20;;;2.10;80.60;;;;;;5111077;28;20122;-70
2021/01/15 02:19:34;;;;;;;5.07;1.75;;;2.00;80.00;;;;;;5108626;28;20067;-70
2021/01/15 02:22:28;;;;;;;2.47;1.88;;;2.00;79.40;;;;;;5105346;28;20482;-69
2021/01/15 02:24:57;;;;;;;2.67;1.73;;;1.90;79.50;;;;;;5107144;28;20136;-69
2021/01/15 02:27:55;;;;;;;3.03;1.95;;;1.90;79.60;;;;;;5107763;28;20132;-70
2021/01/15 02:30:43;;;;;;;3.13;1.63;;;2.00;79.40;;;;;;5108821;28;20047;-70
2021/01/15 02:33:26;;;;;;;5.10;2.22;;;1.90;78.90;;;;;;5108823;28;20093;-70
2021/01/15 02:35:58;;;;;;;5.20;2.08;;;2.00;78.90;;;;;;5111198;28;20043;-71
2021/01/15 02:38:33;;;;;;;4.60;2.30;;;2.00;79.00;;;;;;5107584;28;20040;-69
2021/01/15 02:41:22;;;;;;;3.63;1.80;;;2.10;79.30;;;;;;5109036;28;20143;-68
2021/01/15 02:43:58;;;;;;;4.35;2.40;;;1.90;78.90;;;;;;5110061;28;20736;-69
2021/01/15 02:46:49;;;;;;;2.70;1.98;;;2.10;78.90;;;;;;5108546;28;20108;-69
2021/01/15 02:49:16;;;;;;;4.55;2.00;;;1.90;78.90;;;;;;5108035;28;20044;-69
2021/01/15 02:51:43;;;;;;;5.13;2.30;;;1.90;79.10;;;;;;5106341;27;20044;-69
2021/01/15 02:54:10;;;;;;;4.25;2.20;;;2.00;79.30;;;;;;5106671;28;20083;-69
2021/01/15 02:56:37;;;;;;;6.80;2.55;;;2.10;79.50;;;;;;5108737;28;20447;-70
2021/01/15 02:59:04;;;;;;;2.92;1.88;;;1.70;79.40;;;;;;5110806;28;20499;-69
2021/01/15 03:01:33;;;;;;;4.30;2.30;;;1.80;79.60;;;;;;5109319;28;20048;-70
2021/01/15 03:04:20;;;;;;;5.68;2.38;;;1.70;79.80;;;;;;5107761;28;20072;-70
2021/01/15 03:06:54;;;;;;;3.55;2.42;;;1.80;80.10;;;;;;5101673;28;20131;-69
2021/01/15 03:09:22;;;;;;;4.88;2.53;;;1.70;79.90;;;;;;5106891;28;20131;-69
2021/01/15 03:11:52;;;;;;;4.57;2.30;;;1.80;80.00;;;;;;5109119;28;20047;-70
2021/01/15 03:14:19;;;;;;;4.23;2.30;;;1.80;79.90;;;;;;5107562;28;20356;-70
2021/01/15 03:16:47;;;;;;;3.85;2.05;;;1.80;80.00;;;;;;5114207;28;20487;-70
2021/01/15 03:19:15;;;;;;;5.35;2.60;;;1.70;80.50;;;;;;5108451;28;20054;-70
2021/01/15 03:21:44;;;;;;;7.45;2.70;;;1.90;80.50;;;;;;5111730;28;20094;-70
2021/01/15 03:24:10;;;;;;;7.50;2.67;;;1.70;81.30;;;;;;5109327;28;20052;-69
2021/01/15 03:26:37;;;;;;;6.78;2.53;;;1.80;80.70;;;;;;5102709;28;20139;-70
2021/01/15 03:29:03;;;;;;;6.13;2.20;;;1.70;80.70;;;;;;5106821;28;20105;-70
2021/01/15 03:31:29;;;;;;;4.20;2.13;;;1.80;80.40;;;;;;5110266;28;20131;-70
2021/01/15 03:33:59;;;;;;;3.13;2.17;;;1.90;80.50;;;;;;5107895;28;20040;-70
2021/01/15 03:36:25;;;;;;;2.85;2.00;;;1.90;80.40;;;;;;5111112;28;20487;-70
2021/01/15 03:38:51;;;;;;;4.18;2.17;;;1.60;80.40;;;;;;5105155;28;20071;-69
2021/01/15 03:41:18;;;;;;;4.90;2.20;;;1.60;81.00;;;;;;5110070;28;20100;-70
2021/01/15 03:43:44;;;;;;;5.10;2.17;;;1.50;81.50;;;;;;5110471;28;20087;-70
2021/01/15 03:46:10;;;;;;;4.38;1.98;;;1.40;82.00;;;;;;5109011;28;20047;-70
2021/01/15 03:48:37;;;;;;;5.15;2.35;;;1.70;82.00;;;;;;5108974;28;20535;-70
2021/01/15 03:51:03;;;;;;;3.92;2.00;;;1.40;82.70;;;;;;5110799;28;20121;-70
2021/01/15 03:53:30;;;;;;;7.07;2.33;;;1.50;82.70;;;;;;5111876;28;20116;-70
2021/01/15 03:55:56;;;;;;;3.65;2.05;;;1.60;82.30;;;;;;5111656;28;20104;-69
2021/01/15 03:58:22;;;;;;;4.88;2.28;;;1.40;82.60;;;;;;5110078;28;20470;-70
2021/01/15 04:00:49;;;;;;;4.75;2.28;;;1.40;83.00;;;;;;5096234;28;20055;-70
2021/01/15 04:03:15;;;;;;;4.70;2.75;;;1.20;82.80;;;;;;5104212;28;20059;-70
2021/01/15 04:05:42;;;;;;;6.18;2.30;;;1.40;83.10;;;;;;5103249;28;20138;-70
2021/01/15 04:08:10;;;;;;;3.38;2.17;;;1.60;83.30;;;;;;5107315;28;20044;-70
2021/01/15 04:10:36;;;;;;;4.07;2.05;;;1.40;83.80;;;;;;5109033;28;20122;-70
2021/01/15 04:13:03;;;;;;;4.05;2.38;;;1.40;83.10;;;;;;5107877;28;20070;-68
2021/01/15 04:15:29;;;;;;;5.47;2.40;;;1.30;82.80;;;;;;5110704;28;20083;-69
2021/01/15 04:17:59;;;;;;;5.35;2.40;;;1.30;82.90;;;;;;5109067;28;20474;-69
2021/01/15 04:20:26;;;;;;;4.53;2.08;;;1.40;83.30;;;;;;5109451;28;20090;-69
2021/01/15 04:22:52;;;;;;;6.30;2.05;;;1.30;83.30;;;;;;5111565;28;20051;-69
2021/01/15 04:25:18;;;;;;;5.30;2.50;;;1.20;83.30;;;;;;5107236;28;20086;-69
2021/01/15 04:27:44;;;;;;;5.80;2.75;;;1.30;83.30;;;;;;5108546;28;20475;-69
2021/01/15 04:30:13;;;;;;;5.75;2.58;;;1.20;83.60;;;;;;5109198;28;20087;-69
2021/01/15 04:32:44;;;;;;;4.43;2.35;;;1.40;84.60;;;;;;5105399;28;20108;-69
2021/01/15 04:35:12;;;;;;;5.18;2.60;;;1.30;83.90;;;;;;5107564;28;20082;-70
2021/01/15 04:37:39;;;;;;;5.25;2.60;;;1.20;84.00;;;;;;5108295;28;20350;-69
2021/01/15 04:40:06;;;;;;;6.82;2.90;;;1.20;84.00;;;;;;5108129;28;20052;-69
2021/01/15 04:42:33;;;;;;;6.40;2.65;;;1.50;84.20;;;;;;5111723;28;20183;-69
2021/01/15 04:45:00;;;;;;;7.47;2.50;;;1.20;83.60;;;;;;5106749;28;20086;-69
2021/01/15 04:47:30;;;;;;;4.78;2.90;;;1.10;83.90;;;;;;5105603;28;20043;-68
2021/01/15 04:49:57;;;;;;;6.10;2.92;;;1.20;84.10;;;;;;5109296;28;20134;-68
2021/01/15 04:52:24;;;;;;;9.70;2.80;;;1.20;84.20;;;;;;5107619;28;20074;-70
2021/01/15 04:54:57;;;;;;;5.45;2.60;;;1.20;84.20;;;;;;5108627;28;20055;-70
2021/01/15 04:57:26;;;;;;;8.52;2.92;;;1.10;84.30;;;;;;5109487;28;20048;-71
2021/01/15 04:59:54;;;;;;;4.78;2.67;;;1.20;84.60;;;;;;5102061;28;20120;-70
2021/01/15 05:02:20;;;;;;;4.97;2.70;;;1.20;85.00;;;;;;5107188;28;20447;-69
2021/01/15 05:04:47;;;;;;;5.40;2.83;;;1.20;85.10;;;;;;5108861;28;20391;-69
2021/01/15 05:07:14;;;;;;;6.47;2.63;;;0.90;85.20;;;;;;5109920;27;20059;-68
2021/01/15 05:09:45;;;;;;;5.72;2.78;;;1.10;85.50;;;;;;5109647;28;20048;-69
2021/01/15 05:12:13;;;;;;;5.45;2.28;;;1.20;85.50;;;;;;5109319;28;20096;-70
2021/01/15 05:14:42;;;;;;;6.05;2.80;;;1.10;85.60;;;;;;5110503;28;20067;-69
2021/01/15 05:17:09;;;;;;;4.80;2.78;;;0.90;85.50;;;;;;5108946;28;20069;-69
2021/01/15 05:19:41;;;;;;;5.28;2.97;;;0.80;85.80;;;;;;5107331;28;20051;-70
2021/01/15 05:22:08;;;;;;;6.10;2.80;;;1.10;85.90;;;;;;5105811;28;20055;-70
2021/01/15 05:24:35;;;;;;;5.13;2.60;;;1.20;86.00;;;;;;5108253;28;20052;-69
2021/01/15 05:30:17;;;;;;;6.68;2.85;;;1.00;86.50;;;;;;5103962;28;20494;-69
2021/01/15 05:32:45;;;;;;;7.80;2.80;;;1.10;86.50;;;;;;5106079;28;20497;-69
2021/01/15 05:35:11;;;;;;;4.75;2.90;;;1.00;86.60;;;;;;5112071;28;20040;-69
2021/01/15 05:37:38;;;;;;;5.00;2.70;;;1.00;87.20;;;;;;5111431;28;20071;-70
2021/01/15 05:40:05;;;;;;;6.22;3.22;;;1.00;87.10;;;;;;5112986;28;20074;-70
2021/01/15 05:42:52;;;;;;;5.85;2.60;;;0.90;87.20;;;;;;5114776;28;20067;-71
2021/01/15 05:45:19;;;;;;;4.50;2.85;;;0.90;87.20;;;;;;5109804;28;20058;-71
2021/01/15 05:47:47;;;;;;;7.22;3.00;;;0.70;87.30;;;;;;5105633;28;20608;-70
2021/01/15 05:50:14;;;;;;;5.93;2.75;;;0.90;87.60;;;;;;5114805;28;20039;-70
2021/01/15 05:52:59;;;;;;;8.73;2.97;;;0.70;87.40;;;;;;5109477;28;20097;-70
2021/01/15 05:55:26;;;;;;;6.18;3.33;;;0.90;87.70;;;;;;5111242;28;20123;-70
2021/01/15 05:57:52;;;;;;;7.55;3.10;;;1.00;88.30;;;;;;5113547;28;20116;-70
2021/01/15 06:00:24;;;;;;;7.00;3.17;;;0.90;87.50;;;;;;5109573;28;20096;-70
2021/01/15 06:02:55;;;;;;;5.40;2.90;;;0.90;87.50;;;;;;5109477;28;20083;-70
2021/01/15 06:05:23;;;;;;;6.20;3.13;;;1.00;87.80;;;;;;5102516;28;20075;-69
2021/01/15 06:07:59;;;;;;;4.97;2.90;;;1.00;87.90;;;;;;5102811;28;20159;-69
2021/01/15 06:10:27;;;;;;;6.75;3.50;;;1.20;88.40;;;;;;5115611;28;20048;-70
2021/01/15 06:12:53;;;;;;;5.45;2.97;;;0.90;87.90;;;;;;5108260;28;20079;-70
2021/01/15 06:15:20;;;;;;;7.18;3.25;;;1.10;87.80;;;;;;5105457;28;20086;-71
2021/01/15 06:17:51;;;;;;;7.75;3.35;;;1.20;88.20;;;;;;5113453;28;20113;-70
2021/01/15 06:20:19;;;;;;;10.48;3.15;;;1.10;88.30;;;;;;5111474;28;20124;-71
2021/01/15 06:22:51;;;;;;;10.23;4.30;;;1.20;88.60;;;;;;5113567;27;20052;-70
2021/01/15 06:25:32;;;;;;;13.98;4.07;;;1.00;88.00;;;;;;5112172;28;20052;-69
2021/01/15 06:28:01;;;;;;;7.60;4.13;;;1.00;88.30;;;;;;5109577;28;20097;-69
2021/01/15 06:30:30;;;;;;;10.35;4.13;;;0.90;88.60;;;;;;5101895;28;20048;-69
2021/01/15 06:33:08;;;;;;;12.05;3.85;;;1.00;89.10;;;;;;5109013;28;20455;-69
2021/01/15 06:35:37;;;;;;;11.57;5.45;;;1.20;89.10;;;;;;5108714;28;20071;-69
2021/01/15 06:38:07;;;;;;;16.45;5.38;;;1.20;89.10;;;;;;5112314;28;20050;-69
2021/01/15 06:40:34;;;;;;;16.92;7.07;;;1.20;89.10;;;;;;5110807;28;20387;-69
2021/01/15 06:43:04;;;;;;;13.27;5.63;;;1.10;89.20;;;;;;5111407;28;20059;-69
2021/01/15 06:45:55;;;;;;;19.20;7.10;;;1.20;89.30;;;;;;5109445;27;20105;-69
2021/01/15 06:48:33;;;;;;;15.43;5.28;;;1.10;89.60;;;;;;5111168;28;20076;-70
2021/01/15 06:51:00;;;;;;;12.52;4.55;;;1.20;89.40;;;;;;5103065;28;20043;-69
2021/01/15 06:53:34;;;;;;;9.40;3.67;;;1.00;89.10;;;;;;5110143;28;20150;-68
2021/01/15 06:56:03;;;;;;;7.70;4.05;;;1.40;89.30;;;;;;5102413;28;20086;-69
2021/01/15 06:58:36;;;;;;;9.57;3.88;;;1.20;89.20;;;;;;5109298;28;20456;-69
2021/01/15 07:01:22;;;;;;;8.27;4.47;;;1.10;89.30;;;;;;5106719;28;20181;-70
2021/01/15 07:04:16;;;;;;;8.35;4.00;;;1.10;89.80;;;;;;5110103;28;20266;-69
2021/01/15 07:07:08;;;;;;;7.72;3.63;;;1.10;89.60;;;;;;5106111;28;20101;-70
2021/01/15 07:09:35;;;;;;;12.07;4.55;;;1.40;89.70;;;;;;5098360;27;20109;-69
2021/01/15 07:12:04;;;;;;;10.13;4.18;;;1.10;89.20;;;;;;5112183;28;20054;-69
2021/01/15 07:14:44;;;;;;;7.75;3.72;;;1.40;89.40;;;;;;5108026;28;20124;-69
2021/01/15 07:17:25;;;;;;;6.82;4.03;;;1.30;89.50;;;;;;5100383;28;20126;-72
2021/01/15 07:20:03;;;;;;;7.93;3.78;;;1.40;89.50;;;;;;5113606;28;20075;-70
2021/01/15 07:22:35;;;;;;;9.98;3.60;;;1.40;89.30;;;;;;5108009;28;20083;-70
2021/01/15 07:25:05;;;;;;;7.57;4.03;;;1.30;89.20;;;;;;5100371;28;20075;-69
2021/01/15 07:27:31;;;;;;;8.83;4.07;;;1.40;89.70;;;;;;5111456;28;20051;-68
2021/01/15 07:29:58;;;;;;;7.15;3.70;;;1.20;89.30;;;;;;5106063;28;20098;-69
2021/01/15 07:32:29;;;;;;;7.93;3.92;;;1.10;89.30;;;;;;5107341;27;20082;-69
2021/01/15 07:35:01;;;;;;;8.63;3.78;;;1.20;89.20;;;;;;5110421;28;20040;-69
2021/01/15 07:37:29;;;;;;;7.68;3.70;;;1.30;89.10;;;;;;5107427;28;20058;-68
2021/01/15 07:40:09;;;;;;;6.18;3.53;;;1.10;89.10;;;;;;5108904;28;20101;-69
2021/01/15 07:42:52;;;;;;;8.20;3.88;;;1.20;89.00;;;;;;5109316;28;20088;-69
2021/01/15 07:45:25;;;;;;;11.52;4.07;;;1.40;89.40;;;;;;5105093;28;20052;-69
2021/01/15 07:48:01;;;;;;;9.57;3.88;;;1.20;88.90;;;;;;5112685;28;20080;-69
2021/01/15 07:50:33;;;;;;;9.52;3.47;;;1.30;89.00;;;;;;5108918;28;20050;-69
2021/01/15 07:53:22;;;;;;;7.90;3.70;;;1.40;89.10;;;;;;5102648;28;20051;-69
2021/01/15 07:55:53;;;;;;;6.72;3.83;;;1.10;88.80;;;;;;5110060;28;20047;-70
2021/01/15 07:58:23;;;;;;;;;;;1.20;89.10;;;;;;5107988;28;20047;-70
2021/01/15 08:00:49;;;;;;;10.23;4.15;;;1.40;89.30;;;;;;5107087;28;19993;-69
2021/01/15 08:03:16;;;;;;;8.95;4.18;;;1.00;88.90;;;;;;5103718;28;20060;-69
2021/01/15 08:05:44;;;;;;;7.72;4.20;;;1.10;88.90;;;;;;5106071;28;20466;-70
2021/01/15 08:08:15;;;;;;;8.77;4.38;;;1.40;89.20;;;;;;5108236;28;20544;-70
2021/01/15 08:10:44;;;;;;;10.77;3.92;;;1.40;89.00;;;;;;5108702;28;20470;-69
2021/01/15 08:13:27;;;;;;;7.85;3.90;;;1.10;89.10;;;;;;5108221;28;20130;-70
2021/01/15 08:15:55;;;;;;;8.98;4.07;;;1.40;89.30;;;;;;5107785;28;20452;-70
2021/01/15 08:18:24;;;;;;;10.60;4.20;;;1.10;89.10;;;;;;5112030;28;20044;-70
2021/01/15 08:20:54;;;;;;;9.45;4.32;;;1.40;89.40;;;;;;5109211;28;20097;-70
2021/01/15 08:23:22;;;;;;;;;;;1.30;89.30;;;;;;5101110;28;20467;-70
2021/01/15 08:25:54;;;;;;;11.95;4.22;;;1.30;89.20;;;;;;5109239;28;19959;-70
2021/01/15 08:28:21;;;;;;;11.30;4.25;;;1.30;89.10;;;;;;5106361;28;20476;-69
2021/01/15 08:31:08;;;;;;;10.55;3.85;;;1.30;89.30;;;;;;5106963;28;20445;-70
2021/01/15 08:33:35;;;;;;;7.40;3.90;;;1.20;89.60;;;;;;5109068;28;20046;-71
2021/01/15 08:36:03;;;;;;;8.82;4.38;;;1.20;89.20;;;;;;5108767;28;20067;-70
2021/01/15 08:38:35;;;;;;;8.63;4.38;;;1.50;88.90;;;;;;5100543;28;20096;-69
2021/01/15 08:41:26;;;;;;;11.00;4.45;;;1.40;89.30;;;;;;5106305;28;20516;-72
2021/01/15 08:43:53;;;;;;;11.40;4.10;;;1.60;89.40;;;;;;5089131;28;20076;-70
2021/01/15 08:46:21;;;;;;;11.73;4.70;;;1.60;89.20;;;;;;5086213;28;20058;-71
2021/01/15 08:48:48;;;;;;;11.05;4.50;;;1.50;89.70;;;;;;5088608;28;20109;-70
2021/01/15 08:51:19;;;;;;;8.90;4.22;;;1.60;89.50;;;;;;5087789;28;20124;-69
2021/01/15 08:54:07;;;;;;;9.23;4.75;;;1.70;89.20;;;;;;5087830;28;20048;-70
2021/01/15 08:56:42;;;;;;;10.55;4.93;;;1.60;88.90;;;;;;5090858;28;20479;-70
2021/01/15 08:59:14;;;;;;;9.52;4.38;;;1.60;88.10;;;;;;5089892;28;20099;-70
2021/01/15 09:01:42;;;;;;;9.07;4.15;;;2.10;87.40;;;;;;5088257;28;20481;-69
2021/01/15 09:04:13;;;;;;;13.90;4.63;;;2.30;88.00;;;;;;5096484;28;20135;-70
2021/01/15 09:06:40;;;;;;;11.43;4.72;;;3.10;84.00;;;;;;5088203;28;20052;-69
2021/01/15 09:09:08;;;;;;;10.55;4.45;;;2.90;82.60;;;;;;5087838;28;20051;-71
2021/01/15 09:11:37;;;;;;;10.13;5.07;;;2.30;84.70;;;;;;5088863;28;20075;-69
2021/01/15 09:14:05;;;;;;;13.23;5.03;;;2.30;86.40;;;;;;5088347;28;20043;-70
2021/01/15 09:16:32;;;;;;;10.35;4.95;;;2.70;86.20;;;;;;5086655;28;20071;-69
2021/01/15 09:19:07;;;;;;;13.50;5.03;;;3.60;82.80;;;;;;5084659;28;20444;-69
2021/01/15 09:22:00;;;;;;;8.32;4.47;;;4.20;79.70;;;;;;5085756;28;20056;-70
2021/01/15 09:24:28;;;;;;;9.20;4.63;;;3.90;80.00;;;;;;5085091;28;20134;-68
2021/01/15 09:26:57;;;;;;;10.45;4.90;;;3.40;82.00;;;;;;5092115;28;20993;-70
2021/01/15 09:29:26;;;;;;;8.63;4.10;;;2.70;83.50;;;;;;5077974;28;20143;-70
2021/01/15 09:31:53;;;;;;;10.13;5.05;;;2.80;84.60;;;;;;5084768;28;20447;-70
2021/01/15 09:34:21;;;;;;;10.07;4.20;;;2.50;84.20;;;;;;5088051;28;20403;-70
2021/01/15 09:36:49;;;;;;;9.32;4.30;;;3.00;82.60;;;;;;5085973;28;20105;-75
2021/01/15 09:39:17;;;;;;;9.70;4.32;;;3.30;82.50;;;;;;5085013;28;20163;-73
2021/01/15 09:41:49;;;;;;;12.68;4.15;;;3.90;82.00;;;;;;5086645;28;20066;-72
2021/01/15 09:44:16;;;;;;;8.05;3.92;;;4.80;77.20;;;;;;5090311;28;20052;-72
2021/01/15 09:46:44;;;;;;;7.35;4.05;;;4.90;74.60;;;;;;5087425;28;20054;-72
2021/01/15 09:49:11;;;;;;;10.13;4.72;;;4.80;75.50;;;;;;5084777;28;20051;-73
2021/01/15 09:51:37;;;;;;;10.10;4.63;;;4.40;76.30;;;;;;5083170;28;20487;-71
2021/01/15 09:54:04;;;;;;;12.07;4.47;;;3.60;78.60;;;;;;5087804;28;20086;-72
2021/01/15 09:56:33;;;;;;;10.25;4.43;;;3.60;79.70;;;;;;5087662;28;20124;-72
2021/01/15 09:59:02;;;;;;;8.43;3.90;;;3.50;80.00;;;;;;5091754;28;20170;-72
2021/01/15 10:01:29;;;;;;;8.55;4.40;;;4.10;78.50;;;;;;5089860;28;20631;-74
2021/01/15 10:03:57;;;;;;;9.50;4.68;;;3.70;78.40;;;;;;5090538;28;20059;-73
2021/01/15 10:06:27;;;;;;;10.07;4.20;;;3.60;79.20;;;;;;5089510;28;20051;-73
2021/01/15 10:08:55;;;;;;;8.63;3.85;;;4.10;78.70;;;;;;5087847;28;21124;-73
2021/01/15 10:11:33;;;;;;;10.93;4.38;;;4.20;78.30;;;;;;5092420;28;20048;-69
2021/01/15 10:14:02;;;;;;;11.98;3.92;;;3.90;79.80;;;;;;5090824;28;20547;-71
2021/01/15 10:16:28;;;;;;;8.68;3.72;;;4.30;79.50;;;;;;5086160;28;20463;-69
2021/01/15 10:18:56;;;;;;;8.20;4.10;;;4.30;79.20;;;;;;5087789;28;20047;-70
2021/01/15 10:21:32;;;;;;;7.22;3.83;;;4.20;78.70;;;;;;5090668;28;20066;-69
2021/01/15 10:24:05;;;;;;;9.52;4.38;;;3.90;78.90;;;;;;5093558;28;20075;-71
2021/01/15 10:26:33;;;;;;;7.78;3.88;;;4.10;78.40;;;;;;5093374;28;20552;-69
2021/01/15 10:29:08;;;;;;;9.57;4.18;;;4.20;78.00;;;;;;5093367;28;20187;-69
2021/01/15 10:31:42;;;;;;;7.45;3.72;;;4.30;78.30;;;;;;5089791;28;20079;-72
2021/01/15 10:34:09;;;;;;;10.45;3.72;;;4.30;77.80;;;;;;5091241;28;20056;-72
2021/01/15 10:36:35;;;;;;;12.45;3.85;;;4.00;78.30;;;;;;5089816;28;20105;-72
2021/01/15 10:39:01;;;;;;;8.15;3.40;;;3.90;78.60;;;;;;5093055;28;20495;-71
2021/01/15 10:41:36;;;;;;;8.55;3.80;;;4.80;76.00;;;;;;5092266;28;20588;-70
2021/01/15 10:44:06;;;;;;;8.55;4.00;;;6.00;72.60;;;;;;5097672;28;20048;-71
2021/01/15 10:46:39;;;;;;;8.75;3.70;;;6.90;67.50;;;;;;5093940;27;20171;-72
2021/01/15 10:49:07;;;;;;;6.50;3.90;;;8.00;65.60;;;;;;5092853;28;20051;-71
2021/01/15 10:51:34;;;;;;;10.15;3.72;;;7.00;65.50;;;;;;5089441;28;20149;-71
2021/01/15 10:54:01;;;;;;;7.63;3.67;;;6.90;66.60;;;;;;5088123;28;20497;-73
2021/01/15 10:56:37;;;;;;;6.28;3.45;;;6.60;66.80;;;;;;5090777;28;20133;-72
2021/01/15 10:59:04;;;;;;;7.20;3.78;;;5.90;69.00;;;;;;5090773;28;20436;-71
2021/01/15 11:01:39;;;;;;;9.82;4.03;;;5.90;69.10;;;;;;5090755;28;20052;-70
2021/01/15 11:04:07;;;;;;;10.98;3.65;;;5.90;69.50;;;;;;5090027;27;20047;-70
2021/01/15 11:06:36;;;;;;;6.93;4.25;;;5.90;71.60;;;;;;5090626;28;20058;-70
2021/01/15 11:09:04;;;;;;;10.98;3.97;;;6.20;66.60;;;;;;5089902;27;20558;-70
2021/01/15 11:11:32;;;;;;;7.35;3.17;;;5.70;67.80;;;;;;5090225;28;20048;-71
2021/01/15 11:13:58;;;;;;;9.27;3.13;;;5.60;69.80;;;;;;5093145;28;20145;-70
2021/01/15 11:16:25;;;;;;;5.78;3.17;;;5.10;68.30;;;;;;5094620;28;20131;-72
2021/01/15 11:18:52;;;;;;;4.97;2.72;;;4.90;70.10;;;;;;5088764;28;20117;-72
2021/01/15 11:21:26;;;;;;;7.43;3.65;;;4.80;69.00;;;;;;5097131;28;20133;-70
2021/01/15 11:23:53;;;;;;;6.82;3.60;;;5.10;69.30;;;;;;5104649;27;20136;-71
2021/01/15 11:26:24;;;;;;;7.50;3.30;;;4.80;69.30;;;;;;5093732;28;20147;-71
2021/01/15 11:29:01;;;;;;;6.90;3.47;;;5.00;69.00;;;;;;5089518;28;20055;-71
2021/01/15 11:31:28;;;;;;;5.13;3.13;;;4.90;67.50;;;;;;5087041;28;20067;-70
2021/01/15 11:33:56;;;;;;;4.90;2.63;;;4.80;66.60;;;;;;5088935;28;20047;-70
2021/01/15 11:36:30;;;;;;;7.57;3.15;;;4.90;66.10;;;;;;5090773;28;20074;-71
2021/01/15 11:38:57;;;;;;;6.45;3.70;;;5.10;67.90;;;;;;5089612;28;20556;-72
2021/01/15 11:41:24;;;;;;;9.68;3.40;;;4.80;69.50;;;;;;5090712;28;20155;-72
2021/01/15 11:43:50;;;;;;;10.30;3.22;;;5.30;68.20;;;;;;5090953;28;20086;-73
2021/01/15 11:46:17;;;;;;;9.00;3.53;;;5.10;67.20;;;;;;5103524;28;20078;-72
2021/01/15 11:48:49;;;;;;;5.05;3.65;;;4.80;68.40;;;;;;5103370;28;20043;-70
2021/01/15 11:51:15;;;;;;;8.65;3.78;;;4.60;68.90;;;;;;5102882;28;20059;-70
2021/01/15 11:53:42;;;;;;;7.50;4.03;;;4.60;69.80;;;;;;5104476;28;20051;-70
2021/01/15 11:56:11;;;;;;;5.85;3.22;;;4.70;69.60;;;;;;5106125;28;20043;-71
2021/01/15 11:58:38;;;;;;;8.30;4.25;;;4.40;68.70;;;;;;5104668;28;20047;-71
2021/01/15 12:01:05;;;;;;;8.15;4.45;;;4.30;69.80;;;;;;5105429;28;20075;-72
2021/01/15 12:03:33;;;;;;;9.82;5.28;;;4.40;70.60;;;;;;5100685;28;20053;-72
2021/01/15 12:06:00;;;;;;;12.27;5.53;;;4.50;72.20;;;;;;5101176;28;20092;-73
2021/01/15 12:08:26;;;;;;;13.63;5.70;;;4.90;73.40;;;;;;5102324;28;20105;-71
2021/01/15 12:11:05;;;;;;;10.77;5.57;;;5.10;71.70;;;;;;5105997;28;20048;-71
2021/01/15 12:13:32;;;;;;;11.07;4.93;;;6.00;70.40;;;;;;5098193;28;20868;-72
2021/01/15 12:15:58;;;;;;;9.45;4.78;;;6.40;67.30;;;;;;5100012;28;20138;-70
2021/01/15 12:18:25;;;;;;;22.70;5.82;;;6.20;66.70;;;;;;5102298;28;20054;-72
2021/01/15 12:20:55;;;;;;;9.30;4.03;;;5.90;68.60;;;;;;5103683;27;20051;-70
2021/01/15 12:23:23;;;;;;;13.18;5.40;;;6.20;66.70;;;;;;5107092;28;20168;-70
2021/01/15 12:25:49;;;;;;;10.07;4.97;;;6.40;66.40;;;;;;5102090;27;20054;-71
2021/01/15 12:28:17;;;;;;;9.68;4.85;;;6.40;65.80;;;;;;5106636;28;20056;-71
2021/01/15 12:30:45;;;;;;;8.45;4.45;;;6.80;65.40;;;;;;5101589;28;20046;-70
2021/01/15 12:33:15;;;;;;;10.68;5.28;;;6.90;63.80;;;;;;5103573;28;20471;-72
2021/01/15 12:35:45;;;;;;;10.23;4.95;;;7.00;65.60;;;;;;5106064;28;20058;-71
2021/01/15 12:38:16;;;;;;;10.25;5.85;;;7.10;62.60;;;;;;5103231;28;20152;-71
2021/01/15 12:40:44;;;;;;;12.85;6.72;;;7.00;64.70;;;;;;5099530;28;20079;-72
2021/01/15 12:43:12;;;;;;;16.48;7.15;;;6.80;66.50;;;;;;5105254;28;20131;-71
2021/01/15 12:45:42;;;;;;;12.23;6.47;;;6.50;67.90;;;;;;5102419;28;20100;-71
2021/01/15 12:48:09;;;;;;;18.85;6.97;;;7.10;66.50;;;;;;5099198;28;20070;-70
2021/01/15 12:50:35;;;;;;;11.45;6.60;;;6.80;65.90;;;;;;5101569;28;20048;-71
2021/01/15 12:53:02;;;;;;;16.08;6.50;;;6.20;67.70;;;;;;5102318;28;20468;-72
2021/01/15 12:55:30;;;;;;;12.07;6.82;;;5.90;69.90;;;;;;5106223;28;20536;-70
2021/01/15 12:58:01;;;;;;;14.32;6.30;;;5.30;71.20;;;;;;5100342;28;20073;-70
2021/01/15 13:00:29;;;;;;;15.20;7.30;;;5.20;70.90;;;;;;5100450;28;20059;-71
2021/01/15 13:02:57;;;;;;;14.13;6.60;;;5.30;70.70;;;;;;5100382;28;20529;-71
2021/01/15 13:05:24;;;;;;;12.50;6.68;;;5.30;71.10;;;;;;5106566;28;20054;-71
2021/01/15 13:07:51;;;;;;;18.08;7.45;;;5.50;71.70;;;;;;5106887;28;20055;-72
2021/01/15 13:10:17;;;;;;;14.25;7.88;;;5.00;72.10;;;;;;5100605;28;20083;-71
2021/01/15 13:12:43;;;;;;;18.58;7.03;;;5.00;73.00;;;;;;5100297;28;20039;-70